createdAt,value
2023-12-09T00:00:18.145Z,7.37
2023-12-09T00:02:44.411Z,7.30
2023-12-09T00:05:10.588Z,6.80
2023-12-09T00:07:36.741Z,7.27
2023-12-09T00:10:02.957Z,7.47
2023-12-09T00:12:29.438Z,7.20
2023-12-09T00:14:55.893Z,6.70
2023-12-09T00:17:22.062Z,7.50
2023-12-09T00:19:48.317Z,7.20
2023-12-09T00:22:14.551Z,7.27
2023-12-09T00:24:40.733Z,7.03
2023-12-09T00:27:06.941Z,6.47
2023-12-09T00:29:33.131Z,5.87
2023-12-09T00:31:59.280Z,6.73
2023-12-09T00:34:25.461Z,7.07
2023-12-09T00:36:51.670Z,6.07
2023-12-09T00:39:17.900Z,6.40
2023-12-09T00:41:44.096Z,6.53
2023-12-09T00:44:10.268Z,5.93
2023-12-09T00:46:36.443Z,6.30
2023-12-09T00:49:02.703Z,6.20
2023-12-09T00:51:29.025Z,6.13
2023-12-09T00:53:55.210Z,5.63
2023-12-09T00:56:33.442Z,5.83
2023-12-09T00:59:01.510Z,6.50
2023-12-09T01:01:27.709Z,5.27
2023-12-09T01:03:54.048Z,5.70
2023-12-09T01:06:20.301Z,5.90
2023-12-09T01:08:46.456Z,5.70
2023-12-09T01:11:12.626Z,5.77
2023-12-09T01:13:38.788Z,6.37
2023-12-09T01:16:04.958Z,5.80
2023-12-09T01:18:31.260Z,6.10
2023-12-09T01:20:57.491Z,6.13
2023-12-09T01:23:23.671Z,6.40
2023-12-09T01:25:49.816Z,6.47
2023-12-09T01:28:15.972Z,5.97
2023-12-09T01:30:42.214Z,5.93
2023-12-09T01:33:08.486Z,5.80
2023-12-09T01:35:34.697Z,4.97
2023-12-09T01:38:00.861Z,5.80
2023-12-09T01:40:27.007Z,5.53
2023-12-09T01:42:53.169Z,5.60
2023-12-09T01:45:19.354Z,5.50
2023-12-09T01:47:45.568Z,5.70
2023-12-09T01:50:11.939Z,5.00
2023-12-09T01:52:38.264Z,5.00
2023-12-09T01:55:04.441Z,5.10
2023-12-09T01:57:30.734Z,4.50
2023-12-09T01:59:57.031Z,4.80
2023-12-09T02:02:23.358Z,5.43
2023-12-09T02:04:49.571Z,4.57
2023-12-09T02:07:15.761Z,4.80
2023-12-09T02:09:41.934Z,4.53
2023-12-09T02:12:08.136Z,4.77
2023-12-09T02:14:34.318Z,4.50
2023-12-09T02:17:00.516Z,3.87
2023-12-09T02:19:26.717Z,4.50
2023-12-09T02:21:52.875Z,4.27
2023-12-09T02:24:19.066Z,3.70
2023-12-09T02:26:45.293Z,4.53
2023-12-09T02:29:11.444Z,4.07
2023-12-09T02:31:37.635Z,4.10
2023-12-09T02:34:04.003Z,4.23
2023-12-09T02:36:30.273Z,3.83
2023-12-09T02:38:56.511Z,3.40
2023-12-09T02:41:22.692Z,3.90
2023-12-09T02:43:48.879Z,4.00
2023-12-09T02:46:15.049Z,3.90
2023-12-09T02:48:41.465Z,4.07
2023-12-09T02:51:07.760Z,4.30
2023-12-09T02:53:34.031Z,3.93
2023-12-09T02:56:00.203Z,4.33
2023-12-09T02:58:26.413Z,4.20
2023-12-09T03:00:52.612Z,3.77
2023-12-09T03:03:18.927Z,3.50
2023-12-09T03:05:45.178Z,3.70
2023-12-09T03:08:11.378Z,3.80
2023-12-09T03:10:37.587Z,3.97
2023-12-09T03:13:03.746Z,3.50
2023-12-09T03:15:29.920Z,3.73
2023-12-09T03:17:56.186Z,3.77
2023-12-09T03:20:22.426Z,3.83
2023-12-09T03:22:48.651Z,3.80
2023-12-09T03:25:14.853Z,3.90
2023-12-09T03:27:41.020Z,3.40
2023-12-09T03:30:07.233Z,3.97
2023-12-09T03:32:33.447Z,3.87
2023-12-09T03:34:59.647Z,3.60
2023-12-09T03:37:25.773Z,3.50
2023-12-09T03:39:51.937Z,3.53
2023-12-09T03:42:18.166Z,3.90
2023-12-09T03:44:44.340Z,3.70
2023-12-09T03:47:18.361Z,3.90
2023-12-09T03:49:48.410Z,3.90
2023-12-09T03:52:17.257Z,3.83
2023-12-09T03:54:44.908Z,4.03
2023-12-09T03:57:11.146Z,3.47
2023-12-09T03:59:37.354Z,4.00
2023-12-09T04:02:03.524Z,3.93
2023-12-09T04:04:29.703Z,3.53
2023-12-09T04:06:55.914Z,3.70
2023-12-09T04:09:22.100Z,3.70
2023-12-09T04:11:48.275Z,3.80
2023-12-09T04:14:14.438Z,3.50
2023-12-09T04:16:40.654Z,3.30
2023-12-09T04:19:09.132Z,2.43
2023-12-09T04:21:36.513Z,2.90
2023-12-09T04:24:02.690Z,3.60
2023-12-09T04:26:28.887Z,3.50
2023-12-09T04:28:55.031Z,3.20
2023-12-09T04:31:21.177Z,3.90
2023-12-09T04:33:47.388Z,3.60
2023-12-09T04:36:13.619Z,3.40
2023-12-09T04:38:39.770Z,3.80
2023-12-09T04:41:05.931Z,3.77
2023-12-09T04:43:32.126Z,3.87
2023-12-09T04:45:58.305Z,3.27
2023-12-09T04:48:24.646Z,3.37
2023-12-09T04:50:50.891Z,3.30
2023-12-09T04:53:17.038Z,3.57
2023-12-09T04:55:43.220Z,3.43
2023-12-09T04:58:09.371Z,3.50
2023-12-09T05:00:35.560Z,3.90
2023-12-09T05:03:01.795Z,4.20
2023-12-09T05:05:28.090Z,3.80
2023-12-09T05:07:54.301Z,3.67
2023-12-09T05:10:20.486Z,3.60
2023-12-09T05:12:46.662Z,3.73
2023-12-09T05:15:12.885Z,3.93
2023-12-09T05:17:39.240Z,3.77
2023-12-09T05:20:05.492Z,3.70
2023-12-09T05:22:31.671Z,3.67
2023-12-09T05:24:57.805Z,3.70
2023-12-09T05:27:24.018Z,3.47
2023-12-09T05:29:50.227Z,3.40
2023-12-09T05:32:16.377Z,4.00
2023-12-09T05:34:42.619Z,3.70
2023-12-09T05:37:08.872Z,3.67
2023-12-09T05:39:35.100Z,3.30
2023-12-09T05:42:01.362Z,3.17
2023-12-09T05:44:27.594Z,3.60
2023-12-09T05:46:53.754Z,3.20
2023-12-09T05:49:19.976Z,3.37
2023-12-09T05:51:46.184Z,3.57
2023-12-09T05:54:12.403Z,3.63
2023-12-09T05:56:38.563Z,3.33
2023-12-09T05:59:04.742Z,3.80
2023-12-09T06:01:30.986Z,3.30
2023-12-09T06:03:57.172Z,3.57
2023-12-09T06:06:23.432Z,3.50
2023-12-09T06:08:49.646Z,3.57
2023-12-09T06:11:15.791Z,3.37
2023-12-09T06:13:41.938Z,3.60
2023-12-09T06:16:08.077Z,3.97
2023-12-09T06:18:34.272Z,3.53
2023-12-09T06:21:00.510Z,3.30
2023-12-09T06:23:26.756Z,3.60
2023-12-09T06:25:52.898Z,4.03
2023-12-09T06:28:19.058Z,4.00
2023-12-09T06:30:45.305Z,3.80
2023-12-09T06:33:11.806Z,3.50
2023-12-09T06:35:38.150Z,3.00
2023-12-09T06:38:04.324Z,3.10
2023-12-09T06:40:30.511Z,3.70
2023-12-09T06:42:56.704Z,2.97
2023-12-09T06:45:22.931Z,3.00
2023-12-09T06:47:49.273Z,2.90
2023-12-09T06:50:15.648Z,3.33
2023-12-09T06:52:41.845Z,3.13
2023-12-09T06:55:07.991Z,3.10
2023-12-09T06:57:34.210Z,3.00
2023-12-09T07:00:00.495Z,2.87
2023-12-09T07:02:33.908Z,3.33
2023-12-09T07:05:06.289Z,3.27
2023-12-09T07:07:32.470Z,3.20
2023-12-09T07:09:58.633Z,3.30
2023-12-09T07:12:25.045Z,3.00
2023-12-09T07:14:51.366Z,3.17
2023-12-09T07:17:17.614Z,2.90
2023-12-09T07:19:43.918Z,3.27
2023-12-09T07:22:10.147Z,2.93
2023-12-09T07:24:36.330Z,3.57
2023-12-09T07:27:02.575Z,3.20
2023-12-09T07:29:30.912Z,3.33
2023-12-09T07:31:58.201Z,3.30
2023-12-09T07:34:24.504Z,3.23
2023-12-09T07:36:50.743Z,2.77
2023-12-09T07:39:16.958Z,3.10
2023-12-09T07:41:43.117Z,2.97
2023-12-09T07:44:09.311Z,3.23
2023-12-09T07:46:35.552Z,3.17
2023-12-09T07:49:01.913Z,3.33
2023-12-09T07:51:28.193Z,2.80
2023-12-09T07:53:54.354Z,3.07
2023-12-09T07:56:20.574Z,2.97
2023-12-09T07:58:46.799Z,3.10
2023-12-09T08:01:13.125Z,2.80
2023-12-09T08:03:39.477Z,2.90
2023-12-09T08:06:05.824Z,2.73
2023-12-09T08:08:32.007Z,2.77
2023-12-09T08:10:58.183Z,3.10
2023-12-09T08:13:24.361Z,2.97
2023-12-09T08:15:50.578Z,2.60
2023-12-09T08:18:16.872Z,2.70
2023-12-09T08:20:43.116Z,2.40
2023-12-09T08:23:09.292Z,3.03
2023-12-09T08:25:35.454Z,2.90
2023-12-09T08:28:01.623Z,2.50
2023-12-09T08:30:27.823Z,2.63
2023-12-09T08:32:54.094Z,2.57
2023-12-09T08:35:20.406Z,2.30
2023-12-09T08:37:46.579Z,2.30
2023-12-09T08:40:12.988Z,2.50
2023-12-09T08:42:39.371Z,2.40
2023-12-09T08:45:05.621Z,2.00
2023-12-09T08:47:31.852Z,2.00
2023-12-09T08:49:58.042Z,2.17
2023-12-09T08:52:24.208Z,2.33
2023-12-09T08:54:50.354Z,2.50
2023-12-09T08:57:16.741Z,2.03
2023-12-09T08:59:42.945Z,2.00
2023-12-09T09:02:09.130Z,2.07
2023-12-09T09:04:35.453Z,1.77
2023-12-09T09:07:01.679Z,2.20
2023-12-09T09:09:27.857Z,2.37
2023-12-09T09:11:54.039Z,2.03
2023-12-09T09:14:20.214Z,2.20
2023-12-09T09:16:46.348Z,1.90
2023-12-09T09:19:12.617Z,2.10
2023-12-09T09:21:38.845Z,2.33
2023-12-09T09:24:05.132Z,2.30
2023-12-09T09:26:31.305Z,2.23
2023-12-09T09:28:57.563Z,2.07
2023-12-09T09:31:23.767Z,2.00
2023-12-09T09:33:50.114Z,1.93
2023-12-09T09:36:16.449Z,2.23
2023-12-09T09:38:42.669Z,2.30
2023-12-09T09:41:08.813Z,2.20
2023-12-09T09:43:34.990Z,2.30
2023-12-09T09:46:01.212Z,2.00
2023-12-09T09:48:27.643Z,2.30
2023-12-09T09:50:53.923Z,3.13
2023-12-09T09:53:20.109Z,3.47
2023-12-09T09:55:46.258Z,1.93
2023-12-09T09:58:12.409Z,2.13
2023-12-09T10:00:38.649Z,2.20
2023-12-09T10:03:05.013Z,2.20
2023-12-09T10:05:31.183Z,2.37
2023-12-09T10:07:57.332Z,2.33
2023-12-09T10:10:23.512Z,2.00
2023-12-09T10:12:49.693Z,2.30
2023-12-09T10:15:15.961Z,2.33
2023-12-09T10:17:42.288Z,2.30
2023-12-09T10:20:08.626Z,2.47
2023-12-09T10:22:34.780Z,2.20
2023-12-09T10:25:01.018Z,1.53
2023-12-09T10:27:27.239Z,2.07
2023-12-09T10:29:53.452Z,2.57
2023-12-09T10:32:19.614Z,2.90
2023-12-09T10:34:45.851Z,2.20
2023-12-09T10:37:12.099Z,1.93
2023-12-09T10:39:38.307Z,2.30
2023-12-09T10:42:04.496Z,2.17
2023-12-09T10:44:30.667Z,1.93
2023-12-09T10:46:56.837Z,2.30
2023-12-09T10:49:23.084Z,1.97
2023-12-09T10:51:49.370Z,1.87
2023-12-09T10:54:15.988Z,1.97
2023-12-09T10:56:42.177Z,2.10
2023-12-09T10:59:08.832Z,1.97
2023-12-09T11:01:35.048Z,1.87
2023-12-09T11:04:01.340Z,2.33
2023-12-09T11:06:27.612Z,2.03
2023-12-09T11:08:53.834Z,2.30
2023-12-09T11:11:20.053Z,2.33
2023-12-09T11:13:46.284Z,2.37
2023-12-09T11:16:12.444Z,2.10
2023-12-09T11:18:38.760Z,2.13
2023-12-09T11:21:05.074Z,2.50
2023-12-09T11:23:31.260Z,2.70
2023-12-09T11:25:57.434Z,2.10
2023-12-09T11:28:23.633Z,2.60
2023-12-09T11:30:49.983Z,1.80
2023-12-09T11:33:16.553Z,1.90
2023-12-09T11:35:42.818Z,2.20
2023-12-09T11:38:08.963Z,2.40
2023-12-09T11:40:35.107Z,2.40
2023-12-09T11:43:01.309Z,2.40
2023-12-09T11:45:27.567Z,2.27
2023-12-09T11:47:55.882Z,2.20
2023-12-09T11:50:23.315Z,2.40
2023-12-09T11:52:49.475Z,2.43
2023-12-09T11:55:15.647Z,2.40
2023-12-09T11:57:41.843Z,1.93
2023-12-09T12:00:08.067Z,2.70
2023-12-09T12:02:34.257Z,2.40
2023-12-09T12:05:00.424Z,2.53
2023-12-09T12:07:26.603Z,2.57
2023-12-09T12:09:52.774Z,2.53
2023-12-09T12:12:19.004Z,3.40
2023-12-09T12:14:45.202Z,2.03
2023-12-09T12:17:13.544Z,2.60
2023-12-09T12:19:40.402Z,2.67
2023-12-09T12:22:06.780Z,2.40
2023-12-09T12:24:32.973Z,2.27
2023-12-09T12:26:59.195Z,4.30
2023-12-09T12:29:25.350Z,2.27
2023-12-09T12:31:51.514Z,2.53
2023-12-09T12:34:17.800Z,2.43
2023-12-09T12:36:44.067Z,2.93
2023-12-09T12:39:10.291Z,2.70
2023-12-09T12:41:36.475Z,2.30
2023-12-09T12:44:02.634Z,2.60
2023-12-09T12:46:28.782Z,3.20
2023-12-09T12:48:55.093Z,3.10
2023-12-09T12:51:22.018Z,2.70
2023-12-09T12:53:48.869Z,2.63
2023-12-09T12:56:15.052Z,3.10
2023-12-09T12:58:41.199Z,2.83
2023-12-09T13:01:07.410Z,2.90
2023-12-09T13:03:33.678Z,3.17
2023-12-09T13:05:59.930Z,2.73
2023-12-09T13:08:26.184Z,2.97
2023-12-09T13:10:52.726Z,2.97
2023-12-09T13:13:18.881Z,3.20
2023-12-09T13:15:45.132Z,3.10
2023-12-09T13:18:11.448Z,3.20
2023-12-09T13:20:37.688Z,3.10
2023-12-09T13:23:03.864Z,3.73
2023-12-09T13:25:30.069Z,2.90
2023-12-09T13:27:56.228Z,3.43
2023-12-09T13:30:22.412Z,3.20
2023-12-09T13:32:48.701Z,3.07
2023-12-09T13:35:14.937Z,3.33
2023-12-09T13:37:41.241Z,2.83
2023-12-09T13:40:07.472Z,2.90
2023-12-09T13:42:33.829Z,3.47
2023-12-09T13:45:00.333Z,2.60
2023-12-09T13:47:26.614Z,3.10
2023-12-09T13:49:52.892Z,2.67
2023-12-09T13:52:19.258Z,2.50
2023-12-09T13:54:45.479Z,3.40
2023-12-09T13:57:11.944Z,3.50
2023-12-09T13:59:38.171Z,10.77
2023-12-09T14:02:04.346Z,10.70
2023-12-09T14:04:30.608Z,3.17
2023-12-09T14:06:56.855Z,13.13
2023-12-09T14:09:23.123Z,3.00
2023-12-09T14:11:49.351Z,2.90
2023-12-09T14:14:15.526Z,2.60
2023-12-09T14:16:41.684Z,2.20
2023-12-09T14:19:07.909Z,2.43
2023-12-09T14:21:34.102Z,2.17
2023-12-09T14:24:00.427Z,1.93
2023-12-09T14:26:26.607Z,1.80
2023-12-09T14:28:52.811Z,5.10
2023-12-09T14:31:18.965Z,2.20
2023-12-09T14:33:45.419Z,2.20
2023-12-09T14:36:11.741Z,1.87
2023-12-09T14:38:37.934Z,1.73
2023-12-09T14:41:04.090Z,1.97
2023-12-09T14:43:30.257Z,2.47
2023-12-09T14:45:56.429Z,1.90
2023-12-09T14:48:22.822Z,2.17
2023-12-09T14:50:49.093Z,2.00
2023-12-09T14:53:15.301Z,1.80
2023-12-09T14:55:41.459Z,1.93
2023-12-09T14:58:07.654Z,1.73
2023-12-09T15:00:34.080Z,1.80
2023-12-09T15:03:00.311Z,1.53
2023-12-09T15:05:26.486Z,1.87
2023-12-09T15:07:52.669Z,2.30
2023-12-09T15:10:18.912Z,1.80
2023-12-09T15:12:45.111Z,1.80
2023-12-09T15:15:11.397Z,1.40
2023-12-09T15:17:38.797Z,1.80
2023-12-09T15:20:05.273Z,1.77
2023-12-09T15:22:31.503Z,1.40
2023-12-09T15:24:57.653Z,1.50
2023-12-09T15:27:23.824Z,3.07
2023-12-09T15:29:49.978Z,2.17
2023-12-09T15:32:16.125Z,1.97
2023-12-09T15:34:42.397Z,2.23
2023-12-09T15:37:08.601Z,1.60
2023-12-09T15:39:34.870Z,1.70
2023-12-09T15:42:01.128Z,1.70
2023-12-09T15:44:27.700Z,2.23
2023-12-09T15:46:53.830Z,1.97
2023-12-09T15:49:20.178Z,1.67
2023-12-09T15:51:46.443Z,1.50
2023-12-09T15:54:12.662Z,1.50
2023-12-09T15:56:38.828Z,0.93
2023-12-09T15:59:05.004Z,1.23
2023-12-09T16:01:31.240Z,1.17
2023-12-09T16:03:57.462Z,1.00
2023-12-09T16:06:23.656Z,1.13
2023-12-09T16:08:49.839Z,0.97
2023-12-09T16:11:16.006Z,0.90
2023-12-09T16:13:42.150Z,1.00
2023-12-09T16:16:08.300Z,1.20
2023-12-09T16:18:34.555Z,1.30
2023-12-09T16:21:03.213Z,0.90
2023-12-09T16:23:29.588Z,0.80
2023-12-09T16:25:55.786Z,1.00
2023-12-09T16:28:21.983Z,0.87
2023-12-09T16:30:48.524Z,0.87
2023-12-09T16:33:14.797Z,0.70
2023-12-09T16:35:41.039Z,0.67
2023-12-09T16:38:10.115Z,0.73
2023-12-09T16:40:37.089Z,0.80
2023-12-09T16:43:03.570Z,0.80
2023-12-09T16:45:32.783Z,0.67
2023-12-09T16:48:02.699Z,0.80
2023-12-09T16:50:29.751Z,0.70
2023-12-09T16:52:56.032Z,0.60
2023-12-09T16:55:22.370Z,0.90
2023-12-09T16:57:48.805Z,0.57
2023-12-09T17:00:15.221Z,0.80
2023-12-09T17:02:41.867Z,0.67
2023-12-09T17:05:08.248Z,0.70
2023-12-09T17:07:34.679Z,0.80
2023-12-09T17:10:00.889Z,0.90
2023-12-09T17:12:27.361Z,1.00
2023-12-09T17:14:53.649Z,1.67
2023-12-09T17:17:19.797Z,0.80
2023-12-09T17:19:45.999Z,0.70
2023-12-09T17:22:12.218Z,1.03
2023-12-09T17:24:39.517Z,1.80
2023-12-09T17:27:05.749Z,16.07
2023-12-09T17:29:31.898Z,1.77
2023-12-09T17:31:58.219Z,1.70
2023-12-09T17:34:24.482Z,0.93
2023-12-09T17:36:52.984Z,0.90
2023-12-09T17:39:19.169Z,0.90
2023-12-09T17:41:45.315Z,0.60
2023-12-09T17:44:11.493Z,1.40
2023-12-09T17:46:37.656Z,0.90
2023-12-09T17:49:03.991Z,0.67
2023-12-09T17:51:30.407Z,1.00
2023-12-09T17:53:56.594Z,2.10
2023-12-09T17:56:22.768Z,0.90
2023-12-09T17:58:49.025Z,0.90
2023-12-09T18:01:15.268Z,0.70
2023-12-09T18:03:41.535Z,1.53
2023-12-09T18:06:07.847Z,1.80
2023-12-09T18:08:34.038Z,1.10
2023-12-09T18:11:00.254Z,1.23
2023-12-09T18:13:26.463Z,0.70
2023-12-09T18:15:52.662Z,0.70
2023-12-09T18:18:19.023Z,2.00
2023-12-09T18:20:45.248Z,0.83
2023-12-09T18:23:11.558Z,0.60
2023-12-09T18:25:37.715Z,0.60
2023-12-09T18:28:03.983Z,0.60
2023-12-09T18:30:30.186Z,0.67
2023-12-09T18:32:56.420Z,0.60
2023-12-09T18:35:22.597Z,0.70
2023-12-09T18:37:48.756Z,0.97
2023-12-09T18:40:14.898Z,2.10
2023-12-09T18:42:41.139Z,0.70
2023-12-09T18:45:07.457Z,0.70
2023-12-09T18:47:33.655Z,0.60
2023-12-09T18:49:59.874Z,0.70
2023-12-09T18:52:26.265Z,0.80
2023-12-09T18:54:52.654Z,0.70
2023-12-09T18:57:18.837Z,0.80
2023-12-09T18:59:45.058Z,2.37
2023-12-09T19:02:14.917Z,0.60
2023-12-09T19:04:43.005Z,1.50
2023-12-09T19:07:09.493Z,0.87
2023-12-09T19:09:35.716Z,1.20
2023-12-09T19:12:01.900Z,0.80
2023-12-09T19:14:28.055Z,1.10
2023-12-09T19:16:54.217Z,1.00
2023-12-09T19:19:23.411Z,1.13
2023-12-09T19:21:49.849Z,1.00
2023-12-09T19:24:16.063Z,0.97
2023-12-09T19:26:42.226Z,0.90
2023-12-09T19:29:08.381Z,0.90
2023-12-09T19:31:34.568Z,0.83
2023-12-09T19:34:00.837Z,0.77
2023-12-09T19:36:27.091Z,0.70
2023-12-09T19:38:53.268Z,1.00
2023-12-09T19:41:19.429Z,1.00
2023-12-09T19:43:45.573Z,1.27
2023-12-09T19:46:11.781Z,0.80
2023-12-09T19:48:38.042Z,1.10
2023-12-09T19:51:04.281Z,1.80
2023-12-09T19:53:30.437Z,1.37
2023-12-09T19:55:56.616Z,2.50
2023-12-09T19:58:22.815Z,1.50
2023-12-09T20:00:49.066Z,1.70
2023-12-09T20:03:15.355Z,2.00
2023-12-09T20:05:41.571Z,1.80
2023-12-09T20:08:07.726Z,2.27
2023-12-09T20:10:33.896Z,2.67
2023-12-09T20:13:00.059Z,3.33
2023-12-09T20:15:26.261Z,2.97
2023-12-09T20:17:52.479Z,2.63
2023-12-09T20:20:18.673Z,2.80
2023-12-09T20:22:44.816Z,2.40
2023-12-09T20:25:10.997Z,3.30
2023-12-09T20:27:37.249Z,3.27
2023-12-09T20:30:03.434Z,5.13
2023-12-09T20:32:29.914Z,3.90
2023-12-09T20:34:56.257Z,4.80
2023-12-09T20:37:22.424Z,3.97
2023-12-09T20:39:48.748Z,4.10
2023-12-09T20:42:15.003Z,3.93
2023-12-09T20:44:41.178Z,4.30
2023-12-09T20:47:07.442Z,3.80
2023-12-09T20:49:33.688Z,5.10
2023-12-09T20:51:59.873Z,6.13
2023-12-09T20:54:26.062Z,6.63
2023-12-09T20:56:52.346Z,6.20
2023-12-09T20:59:18.503Z,5.80
2023-12-09T21:01:44.711Z,11.33
2023-12-09T21:04:10.922Z,5.30
2023-12-09T21:06:37.165Z,8.07
2023-12-09T21:09:03.322Z,5.90
2023-12-09T21:11:31.354Z,6.53
2023-12-09T21:13:58.746Z,6.40
2023-12-09T21:16:24.951Z,7.60
2023-12-09T21:18:51.207Z,13.20
2023-12-09T21:21:17.514Z,7.40
2023-12-09T21:23:43.707Z,6.23
2023-12-09T21:26:09.881Z,7.07
2023-12-09T21:28:36.105Z,5.67
2023-12-09T21:31:02.266Z,6.73
2023-12-09T21:33:28.649Z,7.33
2023-12-09T21:35:54.962Z,8.70
2023-12-09T21:38:21.116Z,5.57
2023-12-09T21:40:47.270Z,5.60
2023-12-09T21:43:13.441Z,6.50
2023-12-09T21:45:39.634Z,4.87
2023-12-09T21:48:06.186Z,5.23
2023-12-09T21:50:32.446Z,4.33
2023-12-09T21:52:58.631Z,4.30
2023-12-09T21:55:24.801Z,4.50
2023-12-09T21:57:51.032Z,4.53
2023-12-09T22:00:17.289Z,4.80
2023-12-09T22:02:43.532Z,4.63
2023-12-09T22:05:09.760Z,4.37
2023-12-09T22:07:36.010Z,4.47
2023-12-09T22:10:02.154Z,4.63
2023-12-09T22:12:28.514Z,4.57
2023-12-09T22:14:54.823Z,4.20
2023-12-09T22:17:21.008Z,4.37
2023-12-09T22:19:47.185Z,4.60
2023-12-09T22:22:13.357Z,3.70
2023-12-09T22:24:39.606Z,4.17
2023-12-09T22:27:05.921Z,4.00
2023-12-09T22:29:32.105Z,4.50
2023-12-09T22:31:58.266Z,4.10
2023-12-09T22:34:24.483Z,3.77
2023-12-09T22:36:50.763Z,4.13
2023-12-09T22:39:17.039Z,3.93
2023-12-09T22:41:43.263Z,4.17
2023-12-09T22:44:09.421Z,4.20
2023-12-09T22:46:35.579Z,4.10
2023-12-09T22:49:01.914Z,4.30
2023-12-09T22:51:28.157Z,4.33
2023-12-09T22:53:54.364Z,3.97
2023-12-09T22:56:20.500Z,4.37
2023-12-09T22:58:46.657Z,4.17
2023-12-09T23:01:12.964Z,5.10
2023-12-09T23:03:39.291Z,4.63
2023-12-09T23:06:05.445Z,4.70
2023-12-09T23:08:31.602Z,5.30
2023-12-09T23:10:57.755Z,4.50
2023-12-09T23:13:23.912Z,5.17
2023-12-09T23:15:50.113Z,5.77
2023-12-09T23:18:16.415Z,4.63
2023-12-09T23:20:42.614Z,4.37
2023-12-09T23:23:08.786Z,4.20
2023-12-09T23:25:34.940Z,4.00
2023-12-09T23:28:01.124Z,5.10
2023-12-09T23:30:27.337Z,4.50
2023-12-09T23:32:53.579Z,4.00
2023-12-09T23:35:19.786Z,3.97
2023-12-09T23:37:45.946Z,4.30
2023-12-09T23:40:12.116Z,3.80
2023-12-09T23:42:38.352Z,4.87
2023-12-09T23:45:04.580Z,5.07
2023-12-09T23:47:30.806Z,4.70
2023-12-09T23:49:56.967Z,4.90
2023-12-09T23:52:23.141Z,4.60
2023-12-09T23:54:49.372Z,4.60
2023-12-09T23:57:15.611Z,5.00
2023-12-09T23:59:41.772Z,3.90
